sensor_id;sensor_type;location;lat;lon;timestamp;temperature;humidity
19224;DHT22;9746;47.180;9.776;2023-11-21T07:12:38;6.60;99.90
19224;DHT22;9746;47.180;9.776;2023-11-21T07:15:07;6.60;99.90
19224;DHT22;9746;47.180;9.776;2023-11-21T07:17:35;6.70;99.90
19224;DHT22;9746;47.180;9.776;2023-11-21T07:20:03;6.70;99.90
19224;DHT22;9746;47.180;9.776;2023-11-21T07:22:32;6.70;99.90
19224;DHT22;9746;47.180;9.776;2023-11-21T07:24:59;6.80;99.90
19224;DHT22;9746;47.180;9.776;2023-11-21T07:27:27;6.80;99.90
19224;DHT22;9746;47.180;9.776;2023-11-21T07:29:56;6.90;99.90
19224;DHT22;9746;47.180;9.776;2023-11-21T07:32:23;7.00;99.90
19224;DHT22;9746;47.180;9.776;2023-11-21T07:34:51;7.00;99.90
19224;DHT22;9746;47.180;9.776;2023-11-21T07:37:18;7.10;99.90
19224;DHT22;9746;47.180;9.776;2023-11-21T07:39:46;7.20;99.90
19224;DHT22;9746;47.180;9.776;2023-11-21T07:42:13;7.20;99.90
19224;DHT22;9746;47.180;9.776;2023-11-21T07:44:41;7.20;99.90
19224;DHT22;9746;47.180;9.776;2023-11-21T07:47:10;7.20;99.90
19224;DHT22;9746;47.180;9.776;2023-11-21T07:49:37;7.30;99.90
19224;DHT22;9746;47.180;9.776;2023-11-21T07:52:07;7.30;99.90
19224;DHT22;9746;47.180;9.776;2023-11-21T07:54:36;7.30;99.90
19224;DHT22;9746;47.180;9.776;2023-11-21T07:57:04;7.30;99.90
19224;DHT22;9746;47.180;9.776;2023-11-21T07:59:34;7.40;99.90
19224;DHT22;9746;47.180;9.776;2023-11-21T08:02:01;7.40;99.90
19224;DHT22;9746;47.180;9.776;2023-11-21T08:04:32;7.40;99.90
19224;DHT22;9746;47.180;9.776;2023-11-21T08:07:01;7.40;99.90
19224;DHT22;9746;47.180;9.776;2023-11-21T08:09:45;7.50;99.90
19224;DHT22;9746;47.180;9.776;2023-11-21T08:12:15;7.60;99.90
19224;DHT22;9746;47.180;9.776;2023-11-21T08:14:52;7.60;99.90
19224;DHT22;9746;47.180;9.776;2023-11-21T08:17:19;7.70;99.90
19224;DHT22;9746;47.180;9.776;2023-11-21T08:19:49;7.70;99.90
19224;DHT22;9746;47.180;9.776;2023-11-21T08:22:17;7.80;99.90
19224;DHT22;9746;47.180;9.776;2023-11-21T08:24:46;7.80;99.90
19224;DHT22;9746;47.180;9.776;2023-11-21T08:27:13;7.90;99.90
19224;DHT22;9746;47.180;9.776;2023-11-21T08:29:54;8.00;99.90
19224;DHT22;9746;47.180;9.776;2023-11-21T08:32:23;8.20;99.90
19224;DHT22;9746;47.180;9.776;2023-11-21T08:34:54;8.20;99.90
19224;DHT22;9746;47.180;9.776;2023-11-21T08:37:22;8.30;99.90
19224;DHT22;9746;47.180;9.776;2023-11-21T08:39:58;8.50;99.90
19224;DHT22;9746;47.180;9.776;2023-11-21T08:42:26;8.60;99.90
19224;DHT22;9746;47.180;9.776;2023-11-21T08:45:06;8.70;99.90
19224;DHT22;9746;47.180;9.776;2023-11-21T08:47:35;8.80;99.90
19224;DHT22;9746;47.180;9.776;2023-11-21T08:50:11;9.00;99.90
19224;DHT22;9746;47.180;9.776;2023-11-21T08:52:39;9.20;99.90
19224;DHT22;9746;47.180;9.776;2023-11-21T08:55:09;9.30;99.90
19224;DHT22;9746;47.180;9.776;2023-11-21T08:57:38;9.40;99.90
19224;DHT22;9746;47.180;9.776;2023-11-21T09:00:13;9.50;99.90
19224;DHT22;9746;47.180;9.776;2023-11-21T09:02:43;9.30;99.90
19224;DHT22;9746;47.180;9.776;2023-11-21T09:05:18;9.30;99.90
19224;DHT22;9746;47.180;9.776;2023-11-21T09:07:46;9.30;99.90
19224;DHT22;9746;47.180;9.776;2023-11-21T09:10:15;9.40;99.90
19224;DHT22;9746;47.180;9.776;2023-11-21T09:12:43;9.50;99.90
19224;DHT22;9746;47.180;9.776;2023-11-21T09:15:10;9.60;99.90
19224;DHT22;9746;47.180;9.776;2023-11-21T09:17:38;9.60;99.90
19224;DHT22;9746;47.180;9.776;2023-11-21T09:20:14;9.70;99.90
19224;DHT22;9746;47.180;9.776;2023-11-21T09:22:43;9.70;99.90
19224;DHT22;9746;47.180;9.776;2023-11-21T09:25:12;9.80;99.90
19224;DHT22;9746;47.180;9.776;2023-11-21T09:27:39;9.90;99.90
19224;DHT22;9746;47.180;9.776;2023-11-21T09:30:08;10.00;99.90
19224;DHT22;9746;47.180;9.776;2023-11-21T09:32:37;10.10;99.90
19224;DHT22;9746;47.180;9.776;2023-11-21T09:35:12;10.20;99.90
19224;DHT22;9746;47.180;9.776;2023-11-21T09:37:40;10.30;99.90
19224;DHT22;9746;47.180;9.776;2023-11-21T09:40:11;10.40;99.90
19224;DHT22;9746;47.180;9.776;2023-11-21T09:42:43;10.40;99.90
19224;DHT22;9746;47.180;9.776;2023-11-21T09:45:26;10.60;99.90
19224;DHT22;9746;47.180;9.776;2023-11-21T09:47:55;10.70;99.90
19224;DHT22;9746;47.180;9.776;2023-11-21T09:50:25;10.90;99.90
19224;DHT22;9746;47.180;9.776;2023-11-21T09:52:57;11.40;99.90
19224;DHT22;9746;47.180;9.776;2023-11-21T09:55:35;11.70;99.90
19224;DHT22;9746;47.180;9.776;2023-11-21T09:58:03;12.00;99.90
19224;DHT22;9746;47.180;9.776;2023-11-21T10:00:33;12.10;99.90
19224;DHT22;9746;47.180;9.776;2023-11-21T10:03:01;12.30;99.90
19224;DHT22;9746;47.180;9.776;2023-11-21T10:05:38;12.20;99.90
19224;DHT22;9746;47.180;9.776;2023-11-21T10:08:08;12.00;99.90
19224;DHT22;9746;47.180;9.776;2023-11-21T10:10:43;11.90;99.90
19224;DHT22;9746;47.180;9.776;2023-11-21T10:13:12;11.90;99.90
19224;DHT22;9746;47.180;9.776;2023-11-21T10:15:45;12.00;99.90
19224;DHT22;9746;47.180;9.776;2023-11-21T10:18:17;12.10;99.90
19224;DHT22;9746;47.180;9.776;2023-11-21T10:20:47;12.40;99.90
19224;DHT22;9746;47.180;9.776;2023-11-21T10:23:18;12.50;99.90
19224;DHT22;9746;47.180;9.776;2023-11-21T10:25:50;12.60;99.90
19224;DHT22;9746;47.180;9.776;2023-11-21T10:28:18;12.60;99.90
19224;DHT22;9746;47.180;9.776;2023-11-21T10:30:46;12.70;99.90
19224;DHT22;9746;47.180;9.776;2023-11-21T10:33:14;12.70;99.90
19224;DHT22;9746;47.180;9.776;2023-11-21T10:35:57;12.90;99.90
19224;DHT22;9746;47.180;9.776;2023-11-21T10:38:27;13.00;99.90
19224;DHT22;9746;47.180;9.776;2023-11-21T10:40:57;13.30;99.90
19224;DHT22;9746;47.180;9.776;2023-11-21T10:43:25;13.50;99.90
19224;DHT22;9746;47.180;9.776;2023-11-21T10:45:57;13.80;99.90
19224;DHT22;9746;47.180;9.776;2023-11-21T10:48:25;14.40;99.90
19224;DHT22;9746;47.180;9.776;2023-11-21T10:50:55;15.00;99.90
19224;DHT22;9746;47.180;9.776;2023-11-21T10:53:22;15.60;99.90
19224;DHT22;9746;47.180;9.776;2023-11-21T10:55:50;16.00;99.90
19224;DHT22;9746;47.180;9.776;2023-11-21T10:58:20;16.30;99.90
19224;DHT22;9746;47.180;9.776;2023-11-21T11:00:47;16.30;99.90
19224;DHT22;9746;47.180;9.776;2023-11-21T11:03:15;16.70;99.90
19224;DHT22;9746;47.180;9.776;2023-11-21T11:05:51;16.90;99.90
19224;DHT22;9746;47.180;9.776;2023-11-21T11:08:21;16.80;99.90
19224;DHT22;9746;47.180;9.776;2023-11-21T11:10:52;16.80;99.90
19224;DHT22;9746;47.180;9.776;2023-11-21T11:13:22;17.40;99.90
19224;DHT22;9746;47.180;9.776;2023-11-21T11:15:50;17.90;99.90
19224;DHT22;9746;47.180;9.776;2023-11-21T11:18:18;18.30;99.90
19224;DHT22;9746;47.180;9.776;2023-11-21T11:20:52;18.60;99.90
19224;DHT22;9746;47.180;9.776;2023-11-21T11:23:37;18.40;99.90
19224;DHT22;9746;47.180;9.776;2023-11-21T11:26:21;18.50;99.90
19224;DHT22;9746;47.180;9.776;2023-11-21T11:29:01;18.80;99.90
19224;DHT22;9746;47.180;9.776;2023-11-21T11:31:43;19.40;99.90
19224;DHT22;9746;47.180;9.776;2023-11-21T11:34:20;19.80;99.90
19224;DHT22;9746;47.180;9.776;2023-11-21T11:37:01;20.00;99.90
19224;DHT22;9746;47.180;9.776;2023-11-21T11:39:36;19.90;99.90
19224;DHT22;9746;47.180;9.776;2023-11-21T11:42:06;20.10;99.90
19224;DHT22;9746;47.180;9.776;2023-11-21T11:44:53;20.30;99.90
19224;DHT22;9746;47.180;9.776;2023-11-21T11:47:25;19.70;99.90
19224;DHT22;9746;47.180;9.776;2023-11-21T11:50:02;19.70;99.90
19224;DHT22;9746;47.180;9.776;2023-11-21T11:52:38;19.90;99.90
19224;DHT22;9746;47.180;9.776;2023-11-21T11:55:08;20.40;99.90
19224;DHT22;9746;47.180;9.776;2023-11-21T11:57:40;20.50;99.90
19224;DHT22;9746;47.180;9.776;2023-11-21T12:00:14;20.30;99.90
19224;DHT22;9746;47.180;9.776;2023-11-21T12:02:47;20.20;99.90
19224;DHT22;9746;47.180;9.776;2023-11-21T12:05:18;20.30;99.90
19224;DHT22;9746;47.180;9.776;2023-11-21T12:07:48;20.50;99.90
19224;DHT22;9746;47.180;9.776;2023-11-21T12:10:17;20.50;99.90
19224;DHT22;9746;47.180;9.776;2023-11-21T12:12:46;19.80;99.90
19224;DHT22;9746;47.180;9.776;2023-11-21T12:15:18;19.10;99.90
19224;DHT22;9746;47.180;9.776;2023-11-21T12:17:46;18.30;99.90
19224;DHT22;9746;47.180;9.776;2023-11-21T12:20:18;18.20;99.90
19224;DHT22;9746;47.180;9.776;2023-11-21T12:22:47;17.70;99.90
19224;DHT22;9746;47.180;9.776;2023-11-21T12:25:15;16.80;99.90
19224;DHT22;9746;47.180;9.776;2023-11-21T12:27:46;16.40;99.90
19224;DHT22;9746;47.180;9.776;2023-11-21T12:30:19;16.10;99.90
19224;DHT22;9746;47.180;9.776;2023-11-21T12:32:49;15.50;99.90
19224;DHT22;9746;47.180;9.776;2023-11-21T12:35:19;14.60;99.90
19224;DHT22;9746;47.180;9.776;2023-11-21T12:37:47;14.10;99.90
19224;DHT22;9746;47.180;9.776;2023-11-21T12:40:17;13.60;99.90
19224;DHT22;9746;47.180;9.776;2023-11-21T12:42:45;13.30;99.90
19224;DHT22;9746;47.180;9.776;2023-11-21T12:45:22;12.90;99.90
19224;DHT22;9746;47.180;9.776;2023-11-21T12:47:52;12.70;99.90
19224;DHT22;9746;47.180;9.776;2023-11-21T12:50:22;12.40;99.90
19224;DHT22;9746;47.180;9.776;2023-11-21T12:52:57;12.10;99.90
19224;DHT22;9746;47.180;9.776;2023-11-21T12:55:25;12.00;99.90
19224;DHT22;9746;47.180;9.776;2023-11-21T12:57:54;11.70;99.90
19224;DHT22;9746;47.180;9.776;2023-11-21T13:00:33;11.50;99.90
19224;DHT22;9746;47.180;9.776;2023-11-21T13:03:04;11.50;99.90
19224;DHT22;9746;47.180;9.776;2023-11-21T13:05:39;11.30;99.90
19224;DHT22;9746;47.180;9.776;2023-11-21T13:08:09;11.40;99.90
19224;DHT22;9746;47.180;9.776;2023-11-21T13:10:40;11.50;99.90
19224;DHT22;9746;47.180;9.776;2023-11-21T13:13:11;11.40;99.90
19224;DHT22;9746;47.180;9.776;2023-11-21T13:15:52;11.20;99.90
19224;DHT22;9746;47.180;9.776;2023-11-21T13:18:21;11.20;99.90
19224;DHT22;9746;47.180;9.776;2023-11-21T13:20:49;11.00;99.90
19224;DHT22;9746;47.180;9.776;2023-11-21T13:23:16;11.00;99.90
19224;DHT22;9746;47.180;9.776;2023-11-21T13:25:44;11.10;99.90
19224;DHT22;9746;47.180;9.776;2023-11-21T13:28:13;11.10;99.90
19224;DHT22;9746;47.180;9.776;2023-11-21T13:30:42;11.20;99.90
19224;DHT22;9746;47.180;9.776;2023-11-21T13:33:11;11.20;99.90
19224;DHT22;9746;47.180;9.776;2023-11-21T13:35:44;11.20;99.90
19224;DHT22;9746;47.180;9.776;2023-11-21T13:38:15;11.20;99.90
19224;DHT22;9746;47.180;9.776;2023-11-21T13:40:48;11.20;99.90
19224;DHT22;9746;47.180;9.776;2023-11-21T13:43:16;11.20;99.90
19224;DHT22;9746;47.180;9.776;2023-11-21T13:45:48;11.30;99.90
19224;DHT22;9746;47.180;9.776;2023-11-21T13:48:22;11.30;99.90
19224;DHT22;9746;47.180;9.776;2023-11-21T13:50:57;11.40;99.90
19224;DHT22;9746;47.180;9.776;2023-11-21T13:53:27;11.40;99.90
19224;DHT22;9746;47.180;9.776;2023-11-21T13:55:57;11.40;99.90
19224;DHT22;9746;47.180;9.776;2023-11-21T13:58:25;11.50;99.90
19224;DHT22;9746;47.180;9.776;2023-11-21T14:01:07;11.60;99.90
19224;DHT22;9746;47.180;9.776;2023-11-21T14:03:49;11.60;99.90
19224;DHT22;9746;47.180;9.776;2023-11-21T14:06:23;11.60;99.90
19224;DHT22;9746;47.180;9.776;2023-11-21T14:09:00;11.60;99.90
19224;DHT22;9746;47.180;9.776;2023-11-21T14:11:31;11.60;99.90
19224;DHT22;9746;47.180;9.776;2023-11-21T14:14:00;11.50;99.90
19224;DHT22;9746;47.180;9.776;2023-11-21T14:16:40;11.50;99.90
19224;DHT22;9746;47.180;9.776;2023-11-21T14:19:09;11.40;99.90
19224;DHT22;9746;47.180;9.776;2023-11-21T14:21:41;11.40;99.90
19224;DHT22;9746;47.180;9.776;2023-11-21T14:24:10;11.30;99.90
19224;DHT22;9746;47.180;9.776;2023-11-21T14:26:40;11.30;99.90
19224;DHT22;9746;47.180;9.776;2023-11-21T14:29:08;11.20;99.90
19224;DHT22;9746;47.180;9.776;2023-11-21T14:31:52;11.20;99.90
19224;DHT22;9746;47.180;9.776;2023-11-21T14:34:24;11.20;99.90
19224;DHT22;9746;47.180;9.776;2023-11-21T14:36:58;11.20;99.90
19224;DHT22;9746;47.180;9.776;2023-11-21T14:39:28;11.10;99.90
19224;DHT22;9746;47.180;9.776;2023-11-21T14:41:57;11.00;99.90
19224;DHT22;9746;47.180;9.776;2023-11-21T14:44:25;10.90;99.90
19224;DHT22;9746;47.180;9.776;2023-11-21T14:46:55;10.80;99.90
19224;DHT22;9746;47.180;9.776;2023-11-21T14:49:25;10.70;99.90
19224;DHT22;9746;47.180;9.776;2023-11-21T14:52:05;10.70;99.90
19224;DHT22;9746;47.180;9.776;2023-11-21T14:54:43;10.50;99.90
19224;DHT22;9746;47.180;9.776;2023-11-21T14:57:25;10.30;99.90
19224;DHT22;9746;47.180;9.776;2023-11-21T14:59:52;10.00;99.90
19224;DHT22;9746;47.180;9.776;2023-11-21T15:02:29;9.80;99.90
19224;DHT22;9746;47.180;9.776;2023-11-21T15:05:12;9.60;99.90
19224;DHT22;9746;47.180;9.776;2023-11-21T15:07:49;9.40;99.90
19224;DHT22;9746;47.180;9.776;2023-11-21T15:10:15;9.40;99.90
19224;DHT22;9746;47.180;9.776;2023-11-21T15:12:48;9.40;99.90
19224;DHT22;9746;47.180;9.776;2023-11-21T15:15:15;9.10;99.90
19224;DHT22;9746;47.180;9.776;2023-11-21T15:17:45;9.10;99.90
19224;DHT22;9746;47.180;9.776;2023-11-21T15:20:15;9.00;99.90
19224;DHT22;9746;47.180;9.776;2023-11-21T15:22:45;9.00;99.90
19224;DHT22;9746;47.180;9.776;2023-11-21T15:25:12;8.90;99.90
19224;DHT22;9746;47.180;9.776;2023-11-21T15:27:40;8.90;99.90
19224;DHT22;9746;47.180;9.776;2023-11-21T15:30:08;8.90;99.90
19224;DHT22;9746;47.180;9.776;2023-11-21T15:32:36;8.90;99.90
19224;DHT22;9746;47.180;9.776;2023-11-21T15:35:06;8.90;99.90
19224;DHT22;9746;47.180;9.776;2023-11-21T15:37:48;8.90;99.90
19224;DHT22;9746;47.180;9.776;2023-11-21T15:40:15;8.90;99.90
19224;DHT22;9746;47.180;9.776;2023-11-21T15:42:43;8.90;99.90
19224;DHT22;9746;47.180;9.776;2023-11-21T15:45:13;8.80;99.90
19224;DHT22;9746;47.180;9.776;2023-11-21T15:47:53;8.80;99.90
19224;DHT22;9746;47.180;9.776;2023-11-21T15:50:22;8.80;99.90
19224;DHT22;9746;47.180;9.776;2023-11-21T15:52:52;8.80;99.90
19224;DHT22;9746;47.180;9.776;2023-11-21T15:55:20;8.70;99.90
19224;DHT22;9746;47.180;9.776;2023-11-21T15:57:50;8.60;99.90
19224;DHT22;9746;47.180;9.776;2023-11-21T16:00:17;8.60;99.90
19224;DHT22;9746;47.180;9.776;2023-11-21T16:02:49;8.60;99.90
19224;DHT22;9746;47.180;9.776;2023-11-21T16:05:19;8.50;99.90
19224;DHT22;9746;47.180;9.776;2023-11-21T16:07:47;8.40;99.90
19224;DHT22;9746;47.180;9.776;2023-11-21T16:10:17;8.30;99.90
19224;DHT22;9746;47.180;9.776;2023-11-21T16:12:45;8.30;99.90
19224;DHT22;9746;47.180;9.776;2023-11-21T16:15:22;8.30;99.90
19224;DHT22;9746;47.180;9.776;2023-11-21T16:17:56;8.30;99.90
19224;DHT22;9746;47.180;9.776;2023-11-21T16:20:25;8.20;99.90
19224;DHT22;9746;47.180;9.776;2023-11-21T16:22:53;8.10;99.90
19224;DHT22;9746;47.180;9.776;2023-11-21T16:25:22;7.90;99.90
19224;DHT22;9746;47.180;9.776;2023-11-21T16:27:50;7.80;99.90
19224;DHT22;9746;47.180;9.776;2023-11-21T16:30:18;7.60;99.90
19224;DHT22;9746;47.180;9.776;2023-11-21T16:32:49;7.50;99.90
19224;DHT22;9746;47.180;9.776;2023-11-21T16:35:23;7.40;99.90
19224;DHT22;9746;47.180;9.776;2023-11-21T16:37:53;7.30;99.90
19224;DHT22;9746;47.180;9.776;2023-11-21T16:40:22;7.30;99.90
19224;DHT22;9746;47.180;9.776;2023-11-21T16:42:52;7.30;99.90
19224;DHT22;9746;47.180;9.776;2023-11-21T16:45:21;7.30;99.90
19224;DHT22;9746;47.180;9.776;2023-11-21T16:47:53;7.20;99.90
19224;DHT22;9746;47.180;9.776;2023-11-21T16:50:21;7.20;99.90
19224;DHT22;9746;47.180;9.776;2023-11-21T16:52:49;7.10;99.90
19224;DHT22;9746;47.180;9.776;2023-11-21T16:55:17;7.10;99.90
19224;DHT22;9746;47.180;9.776;2023-11-21T16:57:46;7.10;99.90
19224;DHT22;9746;47.180;9.776;2023-11-21T17:00:13;7.10;99.90
19224;DHT22;9746;47.180;9.776;2023-11-21T17:02:44;7.10;99.90
19224;DHT22;9746;47.180;9.776;2023-11-21T17:05:11;7.10;99.90
19224;DHT22;9746;47.180;9.776;2023-11-21T17:07:42;7.00;99.90
19224;DHT22;9746;47.180;9.776;2023-11-21T17:10:09;7.00;99.90
19224;DHT22;9746;47.180;9.776;2023-11-21T17:12:38;7.10;99.90
19224;DHT22;9746;47.180;9.776;2023-11-21T17:15:08;7.10;99.90
19224;DHT22;9746;47.180;9.776;2023-11-21T17:17:36;7.10;99.90
19224;DHT22;9746;47.180;9.776;2023-11-21T17:20:06;7.10;99.90
19224;DHT22;9746;47.180;9.776;2023-11-21T17:22:36;7.20;99.90
19224;DHT22;9746;47.180;9.776;2023-11-21T17:25:07;7.20;99.90
19224;DHT22;9746;47.180;9.776;2023-11-21T17:27:37;7.20;99.90
19224;DHT22;9746;47.180;9.776;2023-11-21T17:30:08;7.30;99.90
19224;DHT22;9746;47.180;9.776;2023-11-21T17:32:38;7.30;99.90
19224;DHT22;9746;47.180;9.776;2023-11-21T17:35:06;7.30;99.90
19224;DHT22;9746;47.180;9.776;2023-11-21T17:37:35;7.40;99.90
19224;DHT22;9746;47.180;9.776;2023-11-21T17:40:03;7.40;99.90
19224;DHT22;9746;47.180;9.776;2023-11-21T17:42:32;7.40;99.90
19224;DHT22;9746;47.180;9.776;2023-11-21T17:45:00;7.50;99.90
19224;DHT22;9746;47.180;9.776;2023-11-21T17:47:30;7.50;99.90
19224;DHT22;9746;47.180;9.776;2023-11-21T17:49:57;7.40;99.90
19224;DHT22;9746;47.180;9.776;2023-11-21T17:52:37;7.40;99.90
19224;DHT22;9746;47.180;9.776;2023-11-21T17:55:05;7.40;99.90
19224;DHT22;9746;47.180;9.776;2023-11-21T17:57:35;7.50;99.90
19224;DHT22;9746;47.180;9.776;2023-11-21T18:00:04;7.40;99.90
19224;DHT22;9746;47.180;9.776;2023-11-21T18:02:35;7.30;99.90
19224;DHT22;9746;47.180;9.776;2023-11-21T18:05:04;7.20;99.90
19224;DHT22;9746;47.180;9.776;2023-11-21T18:07:37;7.20;99.90
19224;DHT22;9746;47.180;9.776;2023-11-21T18:10:06;7.20;99.90
19224;DHT22;9746;47.180;9.776;2023-11-21T18:12:35;7.20;99.90
19224;DHT22;9746;47.180;9.776;2023-11-21T18:15:03;7.10;99.90
19224;DHT22;9746;47.180;9.776;2023-11-21T18:17:41;7.10;99.90
19224;DHT22;9746;47.180;9.776;2023-11-21T18:20:09;7.10;99.90
19224;DHT22;9746;47.180;9.776;2023-11-21T18:22:39;7.10;99.90
19224;DHT22;9746;47.180;9.776;2023-11-21T18:25:06;7.10;99.90
19224;DHT22;9746;47.180;9.776;2023-11-21T18:27:36;7.10;99.90
19224;DHT22;9746;47.180;9.776;2023-11-21T18:30:05;7.10;99.90
19224;DHT22;9746;47.180;9.776;2023-11-21T18:32:33;7.00;99.90
19224;DHT22;9746;47.180;9.776;2023-11-21T18:35:02;7.00;99.90
19224;DHT22;9746;47.180;9.776;2023-11-21T18:37:36;6.90;99.90
19224;DHT22;9746;47.180;9.776;2023-11-21T18:40:05;6.80;99.90
19224;DHT22;9746;47.180;9.776;2023-11-21T18:42:37;6.70;99.90
19224;DHT22;9746;47.180;9.776;2023-11-21T18:45:07;6.70;99.90
19224;DHT22;9746;47.180;9.776;2023-11-21T18:47:36;6.70;99.90
19224;DHT22;9746;47.180;9.776;2023-11-21T18:50:07;6.70;99.90
19224;DHT22;9746;47.180;9.776;2023-11-21T18:52:38;6.70;99.90
19224;DHT22;9746;47.180;9.776;2023-11-21T18:55:07;6.70;99.90
19224;DHT22;9746;47.180;9.776;2023-11-21T18:57:37;6.70;99.90
19224;DHT22;9746;47.180;9.776;2023-11-21T19:00:07;6.70;99.90
19224;DHT22;9746;47.180;9.776;2023-11-21T19:02:35;6.60;99.90
19224;DHT22;9746;47.180;9.776;2023-11-21T19:05:11;6.70;99.90
19224;DHT22;9746;47.180;9.776;2023-11-21T19:07:41;6.70;99.90
19224;DHT22;9746;47.180;9.776;2023-11-21T19:10:11;6.70;99.90
19224;DHT22;9746;47.180;9.776;2023-11-21T19:12:39;6.90;99.90
19224;DHT22;9746;47.180;9.776;2023-11-21T19:15:10;6.90;99.90
19224;DHT22;9746;47.180;9.776;2023-11-21T19:17:50;7.00;99.90
19224;DHT22;9746;47.180;9.776;2023-11-21T19:20:20;7.00;99.90
19224;DHT22;9746;47.180;9.776;2023-11-21T19:22:49;7.10;99.90
19224;DHT22;9746;47.180;9.776;2023-11-21T19:25:17;7.10;99.90
19224;DHT22;9746;47.180;9.776;2023-11-21T19:27:49;7.10;99.90
19224;DHT22;9746;47.180;9.776;2023-11-21T19:30:17;7.10;99.90
19224;DHT22;9746;47.180;9.776;2023-11-21T19:32:50;7.20;99.90
19224;DHT22;9746;47.180;9.776;2023-11-21T19:35:18;7.20;99.90
19224;DHT22;9746;47.180;9.776;2023-11-21T19:37:51;7.20;99.90
19224;DHT22;9746;47.180;9.776;2023-11-21T19:40:25;7.20;99.90
19224;DHT22;9746;47.180;9.776;2023-11-21T19:43:12;7.20;99.90
19224;DHT22;9746;47.180;9.776;2023-11-21T19:45:39;7.30;99.90
19224;DHT22;9746;47.180;9.776;2023-11-21T19:48:32;7.30;99.90
19224;DHT22;9746;47.180;9.776;2023-11-21T19:51:01;7.20;99.90
19224;DHT22;9746;47.180;9.776;2023-11-21T19:53:33;7.20;99.90
19224;DHT22;9746;47.180;9.776;2023-11-21T19:56:02;7.20;99.90
19224;DHT22;9746;47.180;9.776;2023-11-21T19:58:31;7.20;99.90
19224;DHT22;9746;47.180;9.776;2023-11-21T20:00:58;7.20;99.90
19224;DHT22;9746;47.180;9.776;2023-11-21T20:03:46;7.20;99.90
19224;DHT22;9746;47.180;9.776;2023-11-21T20:06:14;7.20;99.90
19224;DHT22;9746;47.180;9.776;2023-11-21T20:08:43;7.20;99.90
19224;DHT22;9746;47.180;9.776;2023-11-21T20:11:19;7.10;99.90
19224;DHT22;9746;47.180;9.776;2023-11-21T20:13:48;7.00;99.90
19224;DHT22;9746;47.180;9.776;2023-11-21T20:16:15;7.00;99.90
19224;DHT22;9746;47.180;9.776;2023-11-21T20:18:48;6.90;99.90
19224;DHT22;9746;47.180;9.776;2023-11-21T20:21:19;6.90;99.90
19224;DHT22;9746;47.180;9.776;2023-11-21T20:23:49;6.90;99.90
19224;DHT22;9746;47.180;9.776;2023-11-21T20:26:21;6.90;99.90
19224;DHT22;9746;47.180;9.776;2023-11-21T20:28:49;6.80;99.90
19224;DHT22;9746;47.180;9.776;2023-11-21T20:31:18;6.80;99.90
19224;DHT22;9746;47.180;9.776;2023-11-21T20:33:47;6.80;99.90
19224;DHT22;9746;47.180;9.776;2023-11-21T20:36:15;6.80;99.90
19224;DHT22;9746;47.180;9.776;2023-11-21T20:38:42;6.80;99.90
19224;DHT22;9746;47.180;9.776;2023-11-21T20:41:11;6.90;99.90
19224;DHT22;9746;47.180;9.776;2023-11-21T20:43:45;6.90;99.90
19224;DHT22;9746;47.180;9.776;2023-11-21T20:46:12;7.00;99.90
19224;DHT22;9746;47.180;9.776;2023-11-21T20:48:50;7.00;99.90
19224;DHT22;9746;47.180;9.776;2023-11-21T20:51:19;7.00;99.90
19224;DHT22;9746;47.180;9.776;2023-11-21T20:53:47;7.00;99.90
19224;DHT22;9746;47.180;9.776;2023-11-21T20:56:16;7.00;99.90
19224;DHT22;9746;47.180;9.776;2023-11-21T20:58:46;7.10;99.90
19224;DHT22;9746;47.180;9.776;2023-11-21T21:01:13;7.20;99.90
19224;DHT22;9746;47.180;9.776;2023-11-21T21:03:41;7.20;99.90
19224;DHT22;9746;47.180;9.776;2023-11-21T21:06:11;7.20;99.90
19224;DHT22;9746;47.180;9.776;2023-11-21T21:08:45;7.20;99.90
19224;DHT22;9746;47.180;9.776;2023-11-21T21:11:18;7.20;99.90
19224;DHT22;9746;47.180;9.776;2023-11-21T21:13:46;7.30;99.90
19224;DHT22;9746;47.180;9.776;2023-11-21T21:16:14;7.20;99.90
19224;DHT22;9746;47.180;9.776;2023-11-21T21:18:42;7.20;99.90
19224;DHT22;9746;47.180;9.776;2023-11-21T21:21:10;7.20;99.90
19224;DHT22;9746;47.180;9.776;2023-11-21T21:23:37;7.20;99.90
19224;DHT22;9746;47.180;9.776;2023-11-21T21:26:05;7.20;99.90
19224;DHT22;9746;47.180;9.776;2023-11-21T21:28:37;7.20;99.90
